sensor_id;sensor_type;location;lat;lon;timestamp;temperature;humidity
43015;DHT22;28637;50.554;7.032;2023-04-03T00:03:36;5.50;99.90
43015;DHT22;28637;50.554;7.032;2023-04-03T00:08:38;5.50;99.90
43015;DHT22;28637;50.554;7.032;2023-04-03T00:13:39;5.50;99.90
43015;DHT22;28637;50.554;7.032;2023-04-03T00:18:40;5.40;99.90
43015;DHT22;28637;50.554;7.032;2023-04-03T00:23:41;5.50;99.90
43015;DHT22;28637;50.554;7.032;2023-04-03T00:28:43;5.40;99.90
43015;DHT22;28637;50.554;7.032;2023-04-03T00:33:44;5.40;99.90
43015;DHT22;28637;50.554;7.032;2023-04-03T00:38:44;5.40;99.90
43015;DHT22;28637;50.554;7.032;2023-04-03T00:43:45;5.40;99.90
43015;DHT22;28637;50.554;7.032;2023-04-03T00:48:49;5.30;99.90
43015;DHT22;28637;50.554;7.032;2023-04-03T00:53:55;5.30;99.90
43015;DHT22;28637;50.554;7.032;2023-04-03T00:59:33;5.30;99.90
43015;DHT22;28637;50.554;7.032;2023-04-03T01:04:38;5.30;99.90
43015;DHT22;28637;50.554;7.032;2023-04-03T01:09:40;5.20;99.90
43015;DHT22;28637;50.554;7.032;2023-04-03T01:14:46;5.20;99.90
43015;DHT22;28637;50.554;7.032;2023-04-03T01:25:12;5.20;99.90
43015;DHT22;28637;50.554;7.032;2023-04-03T01:30:17;5.10;99.90
43015;DHT22;28637;50.554;7.032;2023-04-03T01:35:19;5.10;99.90
43015;DHT22;28637;50.554;7.032;2023-04-03T01:40:20;5.10;99.90
43015;DHT22;28637;50.554;7.032;2023-04-03T01:45:21;5.10;99.90
43015;DHT22;28637;50.554;7.032;2023-04-03T01:50:22;5.00;99.90
43015;DHT22;28637;50.554;7.032;2023-04-03T01:55:23;5.10;99.90
43015;DHT22;28637;50.554;7.032;2023-04-03T02:00:24;5.10;99.90
43015;DHT22;28637;50.554;7.032;2023-04-03T02:05:25;5.00;99.90
43015;DHT22;28637;50.554;7.032;2023-04-03T02:10:26;4.90;99.90
43015;DHT22;28637;50.554;7.032;2023-04-03T02:15:27;4.90;99.90
43015;DHT22;28637;50.554;7.032;2023-04-03T02:20:28;4.90;99.90
43015;DHT22;28637;50.554;7.032;2023-04-03T02:25:30;4.80;99.90
43015;DHT22;28637;50.554;7.032;2023-04-03T02:30:31;4.80;99.90
43015;DHT22;28637;50.554;7.032;2023-04-03T02:35:32;4.70;99.90
43015;DHT22;28637;50.554;7.032;2023-04-03T02:40:33;4.70;99.90
43015;DHT22;28637;50.554;7.032;2023-04-03T02:45:34;4.70;99.90
43015;DHT22;28637;50.554;7.032;2023-04-03T02:50:35;4.70;99.90
43015;DHT22;28637;50.554;7.032;2023-04-03T02:55:36;4.60;99.90
43015;DHT22;28637;50.554;7.032;2023-04-03T03:00:37;4.60;99.90
43015;DHT22;28637;50.554;7.032;2023-04-03T03:05:38;4.70;99.90
43015;DHT22;28637;50.554;7.032;2023-04-03T03:10:38;4.70;99.90
43015;DHT22;28637;50.554;7.032;2023-04-03T03:15:39;4.60;99.90
43015;DHT22;28637;50.554;7.032;2023-04-03T03:20:41;4.60;99.90
43015;DHT22;28637;50.554;7.032;2023-04-03T03:25:41;4.60;99.90
43015;DHT22;28637;50.554;7.032;2023-04-03T03:30:42;4.60;99.90
43015;DHT22;28637;50.554;7.032;2023-04-03T03:35:43;4.50;99.90
43015;DHT22;28637;50.554;7.032;2023-04-03T03:40:46;4.50;99.90
43015;DHT22;28637;50.554;7.032;2023-04-03T03:45:51;4.40;99.90
43015;DHT22;28637;50.554;7.032;2023-04-03T03:50:53;4.40;99.90
43015;DHT22;28637;50.554;7.032;2023-04-03T03:55:53;4.30;99.90
43015;DHT22;28637;50.554;7.032;2023-04-03T04:00:55;4.30;99.90
43015;DHT22;28637;50.554;7.032;2023-04-03T04:05:56;4.30;99.90
43015;DHT22;28637;50.554;7.032;2023-04-03T04:10:56;4.40;99.90
43015;DHT22;28637;50.554;7.032;2023-04-03T04:15:57;4.30;99.90
43015;DHT22;28637;50.554;7.032;2023-04-03T04:20:58;4.40;99.90
43015;DHT22;28637;50.554;7.032;2023-04-03T04:25:58;4.30;99.90
43015;DHT22;28637;50.554;7.032;2023-04-03T04:30:59;4.30;99.90
43015;DHT22;28637;50.554;7.032;2023-04-03T04:36:00;4.20;99.90
43015;DHT22;28637;50.554;7.032;2023-04-03T04:41:01;4.00;99.90
43015;DHT22;28637;50.554;7.032;2023-04-03T04:46:05;3.80;99.90
43015;DHT22;28637;50.554;7.032;2023-04-03T04:51:06;3.70;99.90
43015;DHT22;28637;50.554;7.032;2023-04-03T04:56:07;3.60;99.90
43015;DHT22;28637;50.554;7.032;2023-04-03T05:01:10;3.50;99.90
43015;DHT22;28637;50.554;7.032;2023-04-03T05:06:11;3.20;99.90
43015;DHT22;28637;50.554;7.032;2023-04-03T05:11:12;3.10;99.90
43015;DHT22;28637;50.554;7.032;2023-04-03T05:16:13;3.00;99.90
43015;DHT22;28637;50.554;7.032;2023-04-03T05:21:14;3.00;99.90
43015;DHT22;28637;50.554;7.032;2023-04-03T05:26:16;2.90;99.90
43015;DHT22;28637;50.554;7.032;2023-04-03T05:31:17;2.90;99.90
43015;DHT22;28637;50.554;7.032;2023-04-03T05:36:18;3.00;99.90
43015;DHT22;28637;50.554;7.032;2023-04-03T05:41:19;3.10;99.90
43015;DHT22;28637;50.554;7.032;2023-04-03T05:46:21;3.10;99.90
43015;DHT22;28637;50.554;7.032;2023-04-03T05:51:24;3.20;99.90
43015;DHT22;28637;50.554;7.032;2023-04-03T05:56:28;3.30;99.90
43015;DHT22;28637;50.554;7.032;2023-04-03T06:01:30;3.40;99.90
43015;DHT22;28637;50.554;7.032;2023-04-03T06:06:55;3.40;99.90
43015;DHT22;28637;50.554;7.032;2023-04-03T06:11:57;3.60;99.90
43015;DHT22;28637;50.554;7.032;2023-04-03T06:17:02;3.70;99.90
43015;DHT22;28637;50.554;7.032;2023-04-03T06:22:03;3.90;99.90
43015;DHT22;28637;50.554;7.032;2023-04-03T06:27:04;4.10;99.90
43015;DHT22;28637;50.554;7.032;2023-04-03T06:32:05;4.40;99.90
43015;DHT22;28637;50.554;7.032;2023-04-03T06:37:06;4.70;99.90
43015;DHT22;28637;50.554;7.032;2023-04-03T06:42:07;4.90;99.90
43015;DHT22;28637;50.554;7.032;2023-04-03T06:47:11;4.90;99.90
43015;DHT22;28637;50.554;7.032;2023-04-03T06:52:13;4.90;99.90
43015;DHT22;28637;50.554;7.032;2023-04-03T06:57:14;5.00;99.90
43015;DHT22;28637;50.554;7.032;2023-04-03T07:02:15;5.10;99.90
43015;DHT22;28637;50.554;7.032;2023-04-03T07:07:16;5.20;99.90
43015;DHT22;28637;50.554;7.032;2023-04-03T07:12:18;5.30;99.90
43015;DHT22;28637;50.554;7.032;2023-04-03T07:17:19;5.40;99.90
43015;DHT22;28637;50.554;7.032;2023-04-03T07:22:19;5.50;99.90
43015;DHT22;28637;50.554;7.032;2023-04-03T07:27:20;5.60;99.90
43015;DHT22;28637;50.554;7.032;2023-04-03T07:32:22;5.60;99.90
43015;DHT22;28637;50.554;7.032;2023-04-03T07:37:22;5.80;99.90
43015;DHT22;28637;50.554;7.032;2023-04-03T07:42:23;5.80;99.90
43015;DHT22;28637;50.554;7.032;2023-04-03T07:47:24;5.90;99.90
43015;DHT22;28637;50.554;7.032;2023-04-03T07:52:26;6.10;99.90
43015;DHT22;28637;50.554;7.032;2023-04-03T07:57:26;6.20;99.90
43015;DHT22;28637;50.554;7.032;2023-04-03T08:02:28;6.50;99.90
43015;DHT22;28637;50.554;7.032;2023-04-03T08:07:29;6.90;99.90
43015;DHT22;28637;50.554;7.032;2023-04-03T08:12:30;7.10;99.90
43015;DHT22;28637;50.554;7.032;2023-04-03T08:17:32;7.00;99.90
43015;DHT22;28637;50.554;7.032;2023-04-03T08:22:34;7.10;99.90
43015;DHT22;28637;50.554;7.032;2023-04-03T08:27:35;7.30;99.90
43015;DHT22;28637;50.554;7.032;2023-04-03T08:32:36;7.50;99.90
43015;DHT22;28637;50.554;7.032;2023-04-03T08:37:38;7.50;99.90
43015;DHT22;28637;50.554;7.032;2023-04-03T08:48:11;7.90;99.90
43015;DHT22;28637;50.554;7.032;2023-04-03T08:53:16;8.00;99.90
43015;DHT22;28637;50.554;7.032;2023-04-03T08:58:23;8.00;99.90
43015;DHT22;28637;50.554;7.032;2023-04-03T09:03:28;8.30;99.90
43015;DHT22;28637;50.554;7.032;2023-04-03T09:08:31;8.80;99.90
43015;DHT22;28637;50.554;7.032;2023-04-03T09:13:39;9.50;99.90
43015;DHT22;28637;50.554;7.032;2023-04-03T09:18:48;10.20;99.90
43015;DHT22;28637;50.554;7.032;2023-04-03T09:23:58;10.60;99.90
43015;DHT22;28637;50.554;7.032;2023-04-03T09:29:04;10.20;99.20
43015;DHT22;28637;50.554;7.032;2023-04-03T09:34:15;9.70;99.90
43015;DHT22;28637;50.554;7.032;2023-04-03T09:39:28;9.70;99.90
43015;DHT22;28637;50.554;7.032;2023-04-03T09:44:35;9.40;99.90
43015;DHT22;28637;50.554;7.032;2023-04-03T09:49:36;9.30;99.90
43015;DHT22;28637;50.554;7.032;2023-04-03T09:54:37;8.90;99.90
43015;DHT22;28637;50.554;7.032;2023-04-03T09:59:56;8.70;99.90
43015;DHT22;28637;50.554;7.032;2023-04-03T10:04:58;8.70;99.90
43015;DHT22;28637;50.554;7.032;2023-04-03T10:10:02;9.10;99.90
43015;DHT22;28637;50.554;7.032;2023-04-03T10:15:15;9.00;99.90
43015;DHT22;28637;50.554;7.032;2023-04-03T10:25:55;9.40;99.90
43015;DHT22;28637;50.554;7.032;2023-04-03T10:46:59;10.70;99.40
43015;DHT22;28637;50.554;7.032;2023-04-03T10:52:30;10.70;98.20
43015;DHT22;28637;50.554;7.032;2023-04-03T10:57:34;10.70;96.50
43015;DHT22;28637;50.554;7.032;2023-04-03T11:02:41;10.60;96.80
43015;DHT22;28637;50.554;7.032;2023-04-03T11:07:48;10.80;95.10
43015;DHT22;28637;50.554;7.032;2023-04-03T11:18:23;11.20;92.70
43015;DHT22;28637;50.554;7.032;2023-04-03T11:23:26;11.60;95.40
43015;DHT22;28637;50.554;7.032;2023-04-03T11:28:28;12.00;93.90
43015;DHT22;28637;50.554;7.032;2023-04-03T11:38:55;12.20;90.20
43015;DHT22;28637;50.554;7.032;2023-04-03T11:44:05;12.30;91.70
43015;DHT22;28637;50.554;7.032;2023-04-03T11:54:47;12.50;83.70
43015;DHT22;28637;50.554;7.032;2023-04-03T11:59:48;12.60;80.90
43015;DHT22;28637;50.554;7.032;2023-04-03T12:10:27;12.90;74.20
43015;DHT22;28637;50.554;7.032;2023-04-03T12:15:51;13.20;69.30
43015;DHT22;28637;50.554;7.032;2023-04-03T12:20:55;13.40;65.50
43015;DHT22;28637;50.554;7.032;2023-04-03T12:26:03;13.50;63.60
43015;DHT22;28637;50.554;7.032;2023-04-03T12:31:08;13.80;66.00
43015;DHT22;28637;50.554;7.032;2023-04-03T12:36:15;14.10;62.20
43015;DHT22;28637;50.554;7.032;2023-04-03T12:46:45;14.50;61.40
43015;DHT22;28637;50.554;7.032;2023-04-03T12:51:47;14.80;62.40
43015;DHT22;28637;50.554;7.032;2023-04-03T12:56:48;14.80;61.70
43015;DHT22;28637;50.554;7.032;2023-04-03T13:01:57;15.10;59.70
43015;DHT22;28637;50.554;7.032;2023-04-03T13:06:59;15.00;60.20
43015;DHT22;28637;50.554;7.032;2023-04-03T13:12:14;15.40;57.70
43015;DHT22;28637;50.554;7.032;2023-04-03T13:17:16;15.60;59.00
43015;DHT22;28637;50.554;7.032;2023-04-03T13:22:33;15.70;57.70
43015;DHT22;28637;50.554;7.032;2023-04-03T13:27:39;15.70;56.60
43015;DHT22;28637;50.554;7.032;2023-04-03T13:32:43;15.80;55.80
43015;DHT22;28637;50.554;7.032;2023-04-03T13:37:53;16.10;55.30
43015;DHT22;28637;50.554;7.032;2023-04-03T13:43:18;15.90;57.60
43015;DHT22;28637;50.554;7.032;2023-04-03T13:48:20;15.90;56.20
43015;DHT22;28637;50.554;7.032;2023-04-03T13:53:24;16.30;56.40
43015;DHT22;28637;50.554;7.032;2023-04-03T13:58:29;16.50;54.90
43015;DHT22;28637;50.554;7.032;2023-04-03T14:08:43;16.30;55.60
43015;DHT22;28637;50.554;7.032;2023-04-03T14:13:45;16.70;52.70
43015;DHT22;28637;50.554;7.032;2023-04-03T14:18:48;16.50;51.60
43015;DHT22;28637;50.554;7.032;2023-04-03T14:23:49;16.70;53.40
43015;DHT22;28637;50.554;7.032;2023-04-03T14:28:51;16.10;52.80
43015;DHT22;28637;50.554;7.032;2023-04-03T14:33:52;16.20;52.40
43015;DHT22;28637;50.554;7.032;2023-04-03T14:38:54;16.40;52.60
43015;DHT22;28637;50.554;7.032;2023-04-03T14:43:56;16.40;50.90
43015;DHT22;28637;50.554;7.032;2023-04-03T14:48:56;16.50;50.20
43015;DHT22;28637;50.554;7.032;2023-04-03T14:53:57;16.40;51.50
43015;DHT22;28637;50.554;7.032;2023-04-03T14:59:00;16.60;51.90
43015;DHT22;28637;50.554;7.032;2023-04-03T15:04:01;16.70;51.80
43015;DHT22;28637;50.554;7.032;2023-04-03T15:09:01;17.00;51.80
43015;DHT22;28637;50.554;7.032;2023-04-03T15:14:03;17.00;51.60
43015;DHT22;28637;50.554;7.032;2023-04-03T15:19:04;16.90;51.00
43015;DHT22;28637;50.554;7.032;2023-04-03T15:24:05;17.30;49.50
43015;DHT22;28637;50.554;7.032;2023-04-03T15:29:06;17.30;52.00
43015;DHT22;28637;50.554;7.032;2023-04-03T15:34:06;16.90;52.50
43015;DHT22;28637;50.554;7.032;2023-04-03T15:39:07;16.60;52.60
43015;DHT22;28637;50.554;7.032;2023-04-03T15:44:08;17.30;51.50
43015;DHT22;28637;50.554;7.032;2023-04-03T15:49:08;17.70;49.40
43015;DHT22;28637;50.554;7.032;2023-04-03T15:54:09;18.10;49.90
43015;DHT22;28637;50.554;7.032;2023-04-03T15:59:10;18.40;48.50
43015;DHT22;28637;50.554;7.032;2023-04-03T16:04:11;18.40;48.60
43015;DHT22;28637;50.554;7.032;2023-04-03T16:09:11;19.30;49.80
43015;DHT22;28637;50.554;7.032;2023-04-03T16:14:12;21.80;45.70
43015;DHT22;28637;50.554;7.032;2023-04-03T16:19:13;23.70;45.70
43015;DHT22;28637;50.554;7.032;2023-04-03T16:24:14;24.90;41.40
43015;DHT22;28637;50.554;7.032;2023-04-03T16:29:15;25.20;40.00
43015;DHT22;28637;50.554;7.032;2023-04-03T16:34:15;25.00;40.10
43015;DHT22;28637;50.554;7.032;2023-04-03T16:39:16;24.60;39.40
43015;DHT22;28637;50.554;7.032;2023-04-03T16:44:17;23.30;39.00
43015;DHT22;28637;50.554;7.032;2023-04-03T16:49:17;21.10;41.60
43015;DHT22;28637;50.554;7.032;2023-04-03T16:54:18;18.80;43.80
43015;DHT22;28637;50.554;7.032;2023-04-03T16:59:19;17.20;45.50
43015;DHT22;28637;50.554;7.032;2023-04-03T17:04:19;16.10;47.60
43015;DHT22;28637;50.554;7.032;2023-04-03T17:09:20;15.50;49.00
43015;DHT22;28637;50.554;7.032;2023-04-03T17:14:21;14.90;48.60
43015;DHT22;28637;50.554;7.032;2023-04-03T17:19:21;14.20;50.80
43015;DHT22;28637;50.554;7.032;2023-04-03T17:24:23;13.60;52.80
43015;DHT22;28637;50.554;7.032;2023-04-03T17:29:24;13.00;52.70
43015;DHT22;28637;50.554;7.032;2023-04-03T17:34:25;12.40;53.50
43015;DHT22;28637;50.554;7.032;2023-04-03T17:39:26;11.90;54.00
43015;DHT22;28637;50.554;7.032;2023-04-03T17:44:28;11.30;54.10
43015;DHT22;28637;50.554;7.032;2023-04-03T17:49:28;10.90;55.20
43015;DHT22;28637;50.554;7.032;2023-04-03T17:54:29;10.50;56.80
43015;DHT22;28637;50.554;7.032;2023-04-03T17:59:30;10.20;57.80
43015;DHT22;28637;50.554;7.032;2023-04-03T18:04:30;9.80;58.40
43015;DHT22;28637;50.554;7.032;2023-04-03T18:09:32;9.50;58.80
43015;DHT22;28637;50.554;7.032;2023-04-03T18:14:34;9.20;60.70
43015;DHT22;28637;50.554;7.032;2023-04-03T18:19:35;8.90;61.60
43015;DHT22;28637;50.554;7.032;2023-04-03T18:24:36;8.60;61.20
43015;DHT22;28637;50.554;7.032;2023-04-03T18:29:38;8.40;62.50
43015;DHT22;28637;50.554;7.032;2023-04-03T18:34:40;8.20;63.40
43015;DHT22;28637;50.554;7.032;2023-04-03T18:39:41;8.00;63.50
43015;DHT22;28637;50.554;7.032;2023-04-03T18:44:43;7.80;64.50
43015;DHT22;28637;50.554;7.032;2023-04-03T18:49:45;7.60;65.00
43015;DHT22;28637;50.554;7.032;2023-04-03T18:54:46;7.50;66.00
43015;DHT22;28637;50.554;7.032;2023-04-03T18:59:46;7.30;67.00
43015;DHT22;28637;50.554;7.032;2023-04-03T19:04:47;7.10;67.60
43015;DHT22;28637;50.554;7.032;2023-04-03T19:09:48;7.00;67.80
43015;DHT22;28637;50.554;7.032;2023-04-03T19:14:49;6.90;68.30
43015;DHT22;28637;50.554;7.032;2023-04-03T19:19:49;6.80;69.20
43015;DHT22;28637;50.554;7.032;2023-04-03T19:24:50;6.70;69.80
43015;DHT22;28637;50.554;7.032;2023-04-03T19:29:50;6.60;71.30
43015;DHT22;28637;50.554;7.032;2023-04-03T19:34:51;6.60;70.70
43015;DHT22;28637;50.554;7.032;2023-04-03T19:39:52;6.50;70.40
43015;DHT22;28637;50.554;7.032;2023-04-03T19:44:53;6.40;70.30
43015;DHT22;28637;50.554;7.032;2023-04-03T19:49:54;6.30;70.90
43015;DHT22;28637;50.554;7.032;2023-04-03T19:54:55;6.20;71.50
43015;DHT22;28637;50.554;7.032;2023-04-03T19:59:55;6.10;71.50
43015;DHT22;28637;50.554;7.032;2023-04-03T20:04:56;6.10;72.40
43015;DHT22;28637;50.554;7.032;2023-04-03T20:09:56;6.00;73.60
43015;DHT22;28637;50.554;7.032;2023-04-03T20:14:57;5.80;75.70
43015;DHT22;28637;50.554;7.032;2023-04-03T20:19:59;5.70;76.70
43015;DHT22;28637;50.554;7.032;2023-04-03T20:25:03;5.50;79.50
43015;DHT22;28637;50.554;7.032;2023-04-03T20:30:05;5.30;87.40
43015;DHT22;28637;50.554;7.032;2023-04-03T20:35:08;5.10;91.10
43015;DHT22;28637;50.554;7.032;2023-04-03T20:40:09;5.00;90.80
43015;DHT22;28637;50.554;7.032;2023-04-03T20:45:10;5.10;90.60
43015;DHT22;28637;50.554;7.032;2023-04-03T20:50:11;5.10;90.80
43015;DHT22;28637;50.554;7.032;2023-04-03T20:55:12;5.10;91.30
43015;DHT22;28637;50.554;7.032;2023-04-03T21:00:13;5.00;90.50
43015;DHT22;28637;50.554;7.032;2023-04-03T21:05:15;5.00;91.40
43015;DHT22;28637;50.554;7.032;2023-04-03T21:20:55;4.80;93.20
43015;DHT22;28637;50.554;7.032;2023-04-03T21:25:56;4.70;94.90
43015;DHT22;28637;50.554;7.032;2023-04-03T21:30:57;4.60;95.20
43015;DHT22;28637;50.554;7.032;2023-04-03T21:35:57;4.60;95.80
43015;DHT22;28637;50.554;7.032;2023-04-03T21:40:59;4.50;95.90
43015;DHT22;28637;50.554;7.032;2023-04-03T21:46:00;4.50;96.40
43015;DHT22;28637;50.554;7.032;2023-04-03T21:51:02;4.40;96.90
43015;DHT22;28637;50.554;7.032;2023-04-03T21:56:03;4.40;97.70
43015;DHT22;28637;50.554;7.032;2023-04-03T22:01:08;4.20;99.90
43015;DHT22;28637;50.554;7.032;2023-04-03T22:06:11;4.10;99.40
43015;DHT22;28637;50.554;7.032;2023-04-03T22:11:12;4.10;99.90
43015;DHT22;28637;50.554;7.032;2023-04-03T22:16:13;4.10;99.90
43015;DHT22;28637;50.554;7.032;2023-04-03T22:21:14;4.00;99.90
43015;DHT22;28637;50.554;7.032;2023-04-03T22:26:15;4.00;99.90
43015;DHT22;28637;50.554;7.032;2023-04-03T22:31:16;3.80;99.90
43015;DHT22;28637;50.554;7.032;2023-04-03T22:36:17;3.80;99.90
43015;DHT22;28637;50.554;7.032;2023-04-03T22:41:17;3.70;99.90
43015;DHT22;28637;50.554;7.032;2023-04-03T22:46:18;3.60;99.90
43015;DHT22;28637;50.554;7.032;2023-04-03T22:51:19;3.50;99.90
43015;DHT22;28637;50.554;7.032;2023-04-03T22:56:20;3.50;99.90
43015;DHT22;28637;50.554;7.032;2023-04-03T23:01:21;3.40;99.90
43015;DHT22;28637;50.554;7.032;2023-04-03T23:06:23;3.30;99.90
43015;DHT22;28637;50.554;7.032;2023-04-03T23:11:23;3.20;99.90
43015;DHT22;28637;50.554;7.032;2023-04-03T23:16:24;3.10;99.90
43015;DHT22;28637;50.554;7.032;2023-04-03T23:21:25;2.60;99.90
43015;DHT22;28637;50.554;7.032;2023-04-03T23:26:26;2.10;99.90
43015;DHT22;28637;50.554;7.032;2023-04-03T23:31:26;1.70;99.90
43015;DHT22;28637;50.554;7.032;2023-04-03T23:36:27;1.50;99.90
43015;DHT22;28637;50.554;7.032;2023-04-03T23:41:27;1.20;99.90
43015;DHT22;28637;50.554;7.032;2023-04-03T23:46:28;1.00;99.90
43015;DHT22;28637;50.554;7.032;2023-04-03T23:51:29;0.90;99.90
43015;DHT22;28637;50.554;7.032;2023-04-03T23:56:29;0.90;99.90
